KCMY

Sparta / Fort Mc Coy Airport

Sparta, Wisconsin, USA
METAR KCMY 210655Z AUTO 00000KT 10SM OVC065 09/09 A3018 RMK AO2 T00930087
Observed Flight Rules
May-21 @ 06:55 UTC (18 minutes ago) Visual Flight Rules
Visibility Clouds
10 miles
  • Overcast at 6,500' AGL
Temperatures Readings
Current 9°C / 48°F
Dewpoint 9°C / 48°F
Humidity 100%
Altimeter 30.18" Hg
Pressure 1022 hPa
Elevation 256
METAR KCMY 210655Z AUTO 00000KT 10SM OVC065 09/09 A3018 RMK AO2 T00930087
Observed Flight Rules
May-21 @ 06:55 UTC
(18 minutes ago)
VFR
Clouds
  • Overcast at 6,500' AGL
Temperature Dewpoint
9°C / 48°F 9°C / 48°F
Humidity Altimeter Pressure
100% 30.18" Hg 1022 hPa